createdAt,value
2022-08-12T00:02:45.370Z,4.43
2022-08-12T00:05:31.581Z,4.53
2022-08-12T00:08:17.559Z,4.45
2022-08-12T00:11:14.284Z,4.40
2022-08-12T00:13:59.881Z,4.65
2022-08-12T00:16:48.627Z,3.50
2022-08-12T00:19:34.099Z,3.63
2022-08-12T00:22:20.217Z,4.32
2022-08-12T00:25:06.105Z,3.72
2022-08-12T00:27:51.663Z,4.47
2022-08-12T00:30:37.257Z,4.35
2022-08-12T00:33:22.410Z,4.93
2022-08-12T00:36:30.683Z,3.95
2022-08-12T00:39:22.304Z,3.70
2022-08-12T00:42:08.418Z,3.95
2022-08-12T00:44:35.182Z,3.60
2022-08-12T00:47:02.381Z,3.70
2022-08-12T00:49:30.603Z,4.10
2022-08-12T00:52:06.598Z,3.50
2022-08-12T00:54:47.182Z,3.88
2022-08-12T00:57:21.811Z,3.45
2022-08-12T00:59:50.458Z,3.33
2022-08-12T01:02:34.346Z,3.70
2022-08-12T01:05:20.695Z,3.75
2022-08-12T01:08:07.146Z,3.28
2022-08-12T01:10:57.987Z,4.05
2022-08-12T01:13:25.654Z,3.90
2022-08-12T01:15:59.468Z,3.58
2022-08-12T01:18:29.150Z,3.47
2022-08-12T01:21:33.357Z,3.63
2022-08-12T01:24:36.635Z,3.50
2022-08-12T01:27:07.844Z,3.55
2022-08-12T01:29:41.724Z,3.90
2022-08-12T01:32:11.994Z,3.90
2022-08-12T01:34:45.486Z,3.58
2022-08-12T01:37:13.419Z,3.90
2022-08-12T01:40:33.606Z,3.90
2022-08-12T01:42:34.550Z,4.20
2022-08-12T01:45:02.003Z,4.70
2022-08-12T01:47:42.985Z,3.75
2022-08-12T01:50:16.759Z,4.72
2022-08-12T01:52:55.245Z,4.22
2022-08-12T01:55:32.419Z,3.90
2022-08-12T01:58:15.557Z,3.92
2022-08-12T02:00:55.438Z,4.28
2022-08-12T02:04:05.915Z,3.90
2022-08-12T02:07:24.985Z,4.10
2022-08-12T02:10:50.159Z,4.13
2022-08-12T02:13:48.145Z,3.55
2022-08-12T02:16:16.093Z,4.15
2022-08-12T02:19:22.232Z,3.97
2022-08-12T02:22:28.193Z,3.83
2022-08-12T02:25:26.967Z,3.70
2022-08-12T02:27:55.459Z,3.85
2022-08-12T02:30:33.242Z,4.75
2022-08-12T02:33:09.814Z,3.88
2022-08-12T02:35:37.516Z,3.33
2022-08-12T02:38:06.815Z,3.55
2022-08-12T02:40:36.531Z,3.28
2022-08-12T02:43:05.738Z,3.33
2022-08-12T02:45:42.648Z,3.80
2022-08-12T02:48:11.059Z,3.63
2022-08-12T02:50:42.335Z,3.90
2022-08-12T02:53:09.259Z,3.55
2022-08-12T02:55:38.745Z,3.78
2022-08-12T02:58:12.366Z,4.05
2022-08-12T03:00:43.964Z,3.63
2022-08-12T03:03:13.343Z,3.50
2022-08-12T03:05:59.229Z,3.42
2022-08-12T03:08:32.736Z,3.53
2022-08-12T03:11:14.353Z,3.33
2022-08-12T03:13:46.731Z,3.53
2022-08-12T03:16:14.657Z,3.67
2022-08-12T03:18:45.832Z,4.03
2022-08-12T03:21:16.594Z,3.75
2022-08-12T03:23:45.395Z,3.90
2022-08-12T03:26:13.009Z,3.58
2022-08-12T03:28:50.311Z,3.63
2022-08-12T03:31:19.918Z,3.50
2022-08-12T03:34:00.856Z,3.58
2022-08-12T03:36:34.729Z,3.60
2022-08-12T03:39:36.505Z,3.95
2022-08-12T03:42:25.342Z,3.78
2022-08-12T03:45:26.525Z,3.80
2022-08-12T03:48:23.399Z,4.00
2022-08-12T03:51:08.794Z,3.42
2022-08-12T03:53:54.712Z,3.47
2022-08-12T03:56:40.159Z,3.70
2022-08-12T03:59:26.260Z,3.55
2022-08-12T04:01:57.275Z,3.53
2022-08-12T04:04:34.052Z,3.47
2022-08-12T04:07:02.660Z,4.30
2022-08-12T04:09:30.294Z,4.00
2022-08-12T04:12:15.682Z,4.18
2022-08-12T04:14:42.427Z,3.90
2022-08-12T04:17:09.247Z,3.72
2022-08-12T04:19:36.712Z,3.67
2022-08-12T04:22:03.913Z,4.38
2022-08-12T04:24:35.395Z,4.05
2022-08-12T04:27:05.577Z,4.25
2022-08-12T04:30:30.065Z,4.13
2022-08-12T04:32:19.254Z,3.72
2022-08-12T04:34:46.145Z,4.13
2022-08-12T04:37:13.148Z,3.75
2022-08-12T04:39:40.433Z,3.97
2022-08-12T04:42:07.170Z,4.03
2022-08-12T04:44:33.858Z,4.25
2022-08-12T04:47:00.710Z,4.65
2022-08-12T04:49:27.974Z,3.50
2022-08-12T04:51:58.988Z,3.65
2022-08-12T04:54:27.161Z,4.10
2022-08-12T04:57:04.234Z,3.65
2022-08-12T04:59:48.700Z,4.22
2022-08-12T05:02:21.134Z,3.80
2022-08-12T05:04:56.066Z,3.85
2022-08-12T05:07:28.409Z,3.75
2022-08-12T05:09:59.804Z,4.65
2022-08-12T05:14:55.877Z,3.88
2022-08-12T05:17:25.106Z,3.63
2022-08-12T05:19:57.124Z,4.07
2022-08-12T05:22:26.269Z,4.10
2022-08-12T05:24:53.278Z,3.88
2022-08-12T05:27:22.726Z,4.10
2022-08-12T05:30:07.972Z,4.30
2022-08-12T05:32:36.925Z,3.67
2022-08-12T05:35:06.746Z,3.95
2022-08-12T05:37:36.766Z,4.20
2022-08-12T05:40:10.731Z,4.07
2022-08-12T05:42:37.895Z,3.88
2022-08-12T05:45:05.865Z,4.45
2022-08-12T05:47:44.839Z,4.05
2022-08-12T05:50:19.680Z,3.95
2022-08-12T05:52:46.339Z,4.20
2022-08-12T05:55:14.785Z,4.00
2022-08-12T05:57:41.517Z,4.22
2022-08-12T06:00:08.603Z,4.43
2022-08-12T06:02:41.880Z,4.05
2022-08-12T06:05:10.545Z,4.07
2022-08-12T06:08:01.955Z,3.88
2022-08-12T06:10:33.357Z,4.32
2022-08-12T06:13:02.140Z,4.15
2022-08-12T06:15:30.633Z,3.60
2022-08-12T06:18:13.838Z,3.80
2022-08-12T06:20:43.289Z,4.15
2022-08-12T06:23:11.560Z,3.78
2022-08-12T06:25:38.298Z,4.10
2022-08-12T06:28:15.473Z,3.88
2022-08-12T06:31:02.656Z,3.85
2022-08-12T06:34:00.206Z,3.88
2022-08-12T06:36:23.601Z,3.60
2022-08-12T06:38:50.750Z,4.13
2022-08-12T06:41:36.435Z,3.60
2022-08-12T06:44:08.941Z,3.72
2022-08-12T06:46:39.289Z,3.63
2022-08-12T06:49:08.565Z,4.05
2022-08-12T06:51:35.217Z,3.60
2022-08-12T06:54:04.033Z,3.85
2022-08-12T06:57:00.189Z,3.65
2022-08-12T06:59:17.473Z,4.25
2022-08-12T07:01:50.859Z,3.47
2022-08-12T07:04:36.360Z,4.32
2022-08-12T07:07:07.227Z,3.50
2022-08-12T07:10:04.157Z,3.65
2022-08-12T07:12:21.840Z,3.83
2022-08-12T07:14:51.195Z,4.00
2022-08-12T07:17:17.890Z,3.35
2022-08-12T07:19:46.705Z,3.72
2022-08-12T07:22:14.865Z,3.33
2022-08-12T07:24:42.170Z,3.78
2022-08-12T07:27:08.924Z,3.28
2022-08-12T07:29:58.182Z,4.60
2022-08-12T07:32:25.569Z,3.38
2022-08-12T07:34:54.522Z,3.38
2022-08-12T07:37:21.409Z,3.60
2022-08-12T07:39:59.774Z,2.95
2022-08-12T07:42:29.104Z,3.10
2022-08-12T07:44:56.206Z,2.85
2022-08-12T07:47:23.664Z,2.90
2022-08-12T07:50:05.263Z,3.45
2022-08-12T07:52:38.452Z,3.45
2022-08-12T07:55:06.950Z,3.10
2022-08-12T07:57:35.366Z,2.95
2022-08-12T08:00:05.449Z,2.85
2022-08-12T08:02:36.876Z,2.40
2022-08-12T08:05:04.497Z,3.15
2022-08-12T08:07:31.395Z,2.88
2022-08-12T08:10:00.968Z,3.00
2022-08-12T08:12:47.585Z,3.35
2022-08-12T08:15:16.499Z,2.75
2022-08-12T08:17:57.649Z,2.90
2022-08-12T08:20:28.584Z,3.00
2022-08-12T08:22:59.998Z,2.92
2022-08-12T08:25:35.788Z,3.05
2022-08-12T08:28:07.020Z,2.85
2022-08-12T08:30:34.131Z,2.60
2022-08-12T08:33:00.984Z,2.53
2022-08-12T08:35:46.202Z,3.17
2022-08-12T08:38:19.837Z,2.97
2022-08-12T08:42:15.683Z,2.60
2022-08-12T08:44:11.447Z,2.90
2022-08-12T08:46:40.492Z,2.83
2022-08-12T08:49:07.207Z,2.83
2022-08-12T08:51:34.410Z,2.72
2022-08-12T08:54:03.230Z,2.70
2022-08-12T08:56:30.340Z,2.70
2022-08-12T08:59:01.975Z,2.75
2022-08-12T09:05:13.511Z,3.17
2022-08-12T09:07:17.814Z,2.90
2022-08-12T09:10:02.033Z,2.65
2022-08-12T09:12:55.045Z,2.53
2022-08-12T09:18:12.660Z,2.60
2022-08-12T09:20:42.440Z,2.70
2022-08-12T09:23:58.463Z,2.72
2022-08-12T09:25:58.200Z,2.70
2022-08-12T09:28:33.041Z,2.67
2022-08-12T09:31:00.280Z,2.75
2022-08-12T09:34:28.791Z,2.10
2022-08-12T09:40:02.485Z,2.70
2022-08-12T09:42:40.311Z,2.72
2022-08-12T09:45:23.415Z,2.65
2022-08-12T09:47:58.911Z,2.83
2022-08-12T09:50:27.225Z,2.55
2022-08-12T09:53:15.713Z,3.15
2022-08-12T09:56:05.674Z,2.70
2022-08-12T09:58:57.193Z,2.97
2022-08-12T10:01:26.379Z,2.38
2022-08-12T10:04:05.662Z,2.20
2022-08-12T10:06:36.025Z,2.67
2022-08-12T10:09:08.118Z,3.00
2022-08-12T10:12:10.417Z,2.23
2022-08-12T10:14:50.070Z,2.60
2022-08-12T10:17:21.458Z,2.65
2022-08-12T10:19:52.057Z,2.50
2022-08-12T10:22:38.814Z,2.53
2022-08-12T10:26:18.195Z,3.00
2022-08-12T10:28:32.219Z,2.65
2022-08-12T10:31:01.134Z,3.05
2022-08-12T10:33:31.655Z,2.90
2022-08-12T10:36:01.714Z,2.50
2022-08-12T10:38:37.676Z,2.65
2022-08-12T10:41:56.780Z,2.88
2022-08-12T10:44:16.903Z,3.00
2022-08-12T10:46:49.560Z,2.75
2022-08-12T10:50:03.592Z,2.95
2022-08-12T10:52:47.166Z,2.85
2022-08-12T10:54:55.810Z,3.03
2022-08-12T10:57:50.413Z,3.05
2022-08-12T11:00:30.566Z,2.50
2022-08-12T11:04:22.643Z,3.00
2022-08-12T11:07:06.337Z,2.85
2022-08-12T11:08:42.165Z,2.55
2022-08-12T11:11:13.602Z,2.85
2022-08-12T11:13:48.931Z,2.70
2022-08-12T11:16:23.058Z,2.92
2022-08-12T11:18:55.166Z,2.50
2022-08-12T11:21:56.056Z,2.65
2022-08-12T11:24:30.347Z,2.33
2022-08-12T11:32:17.934Z,2.50
2022-08-12T11:34:51.594Z,2.38
2022-08-12T11:37:26.900Z,2.40
2022-08-12T11:42:38.165Z,2.38
2022-08-12T11:45:12.640Z,2.28
2022-08-12T11:47:43.119Z,2.67
2022-08-12T11:50:11.603Z,2.13
2022-08-12T11:52:55.914Z,2.22
2022-08-12T11:55:24.230Z,2.30
2022-08-12T11:58:09.589Z,2.05
2022-08-12T12:03:43.643Z,2.10
2022-08-12T12:06:17.736Z,2.20
2022-08-12T12:08:50.608Z,1.75
2022-08-12T12:11:18.919Z,2.30
2022-08-12T12:14:06.683Z,2.00
2022-08-12T12:16:38.222Z,2.33
2022-08-12T12:19:10.427Z,2.30
2022-08-12T12:21:47.815Z,2.20
2022-08-12T12:24:22.141Z,1.95
2022-08-12T12:27:00.262Z,2.20
2022-08-12T12:30:18.915Z,1.90
2022-08-12T12:32:19.183Z,1.92
2022-08-12T12:35:13.561Z,2.35
2022-08-12T12:38:04.436Z,1.80
2022-08-12T12:40:20.799Z,2.20
2022-08-12T12:42:55.898Z,2.53
2022-08-12T12:45:26.946Z,1.90
2022-08-12T12:48:01.045Z,2.40
2022-08-12T12:50:42.409Z,2.03
2022-08-12T12:54:08.162Z,2.22
2022-08-12T12:56:05.685Z,1.83
2022-08-12T12:58:32.380Z,2.10
2022-08-12T13:01:04.914Z,2.40
2022-08-12T13:03:53.184Z,2.15
2022-08-12T13:06:30.285Z,2.20
2022-08-12T13:09:02.803Z,2.33
2022-08-12T13:11:41.222Z,2.42
2022-08-12T13:14:12.638Z,2.15
2022-08-12T13:16:54.383Z,2.05
2022-08-12T13:19:25.416Z,1.90
2022-08-12T13:22:21.742Z,1.92
2022-08-12T13:24:55.557Z,2.30
2022-08-12T13:30:03.670Z,2.38
2022-08-12T13:32:32.993Z,2.35
2022-08-12T13:35:04.285Z,2.30
2022-08-12T13:38:04.186Z,2.00
2022-08-12T13:40:32.894Z,2.35
2022-08-12T13:43:01.757Z,2.22
2022-08-12T13:45:30.783Z,2.15
2022-08-12T13:48:02.408Z,2.13
2022-08-12T13:50:32.775Z,2.03
2022-08-12T13:53:24.951Z,1.98
2022-08-12T13:55:59.439Z,2.58
2022-08-12T13:58:28.929Z,1.90
2022-08-12T14:00:58.099Z,2.10
2022-08-12T14:03:28.643Z,2.08
2022-08-12T14:06:15.226Z,1.90
2022-08-12T14:08:43.155Z,3.78
2022-08-12T14:11:12.451Z,2.17
2022-08-12T14:14:03.522Z,1.88
2022-08-12T14:16:46.691Z,1.88
2022-08-12T14:19:22.177Z,2.28
2022-08-12T14:22:00.536Z,2.30
2022-08-12T14:24:40.803Z,2.20
2022-08-12T14:27:10.749Z,2.17
2022-08-12T14:30:05.863Z,2.13
2022-08-12T14:32:34.952Z,2.53
2022-08-12T14:35:09.425Z,2.30
2022-08-12T14:37:56.196Z,1.92
2022-08-12T14:40:27.578Z,2.13
2022-08-12T14:42:57.025Z,2.08
2022-08-12T14:45:24.556Z,2.13
2022-08-12T14:48:11.397Z,2.17
2022-08-12T14:52:07.931Z,2.00
2022-08-12T14:57:19.585Z,2.13
2022-08-12T14:59:26.173Z,1.80
2022-08-12T15:01:54.669Z,1.73
2022-08-12T15:04:24.562Z,1.80
2022-08-12T15:06:53.053Z,2.00
2022-08-12T15:09:28.782Z,1.90
2022-08-12T15:12:03.205Z,3.15
2022-08-12T15:14:31.726Z,1.80
2022-08-12T15:17:00.516Z,1.77
2022-08-12T15:20:31.725Z,2.28
2022-08-12T15:22:37.831Z,1.60
2022-08-12T15:25:07.576Z,2.00
2022-08-12T15:28:04.235Z,1.80
2022-08-12T15:30:31.186Z,2.20
2022-08-12T15:32:58.441Z,2.13
2022-08-12T15:35:38.085Z,2.10
2022-08-12T15:38:13.731Z,2.20
2022-08-12T15:40:48.354Z,2.20
2022-08-12T15:43:51.521Z,1.90
2022-08-12T15:46:04.599Z,2.00
2022-08-12T15:48:34.513Z,1.80
2022-08-12T15:51:02.843Z,2.28
2022-08-12T15:53:53.076Z,1.80
2022-08-12T15:56:29.438Z,2.03
2022-08-12T15:58:58.753Z,1.67
2022-08-12T16:01:35.129Z,1.65
2022-08-12T16:04:05.364Z,1.70
2022-08-12T16:06:59.221Z,1.63
2022-08-12T16:10:06.141Z,2.55
2022-08-12T16:12:43.106Z,1.95
2022-08-12T16:15:12.015Z,1.65
2022-08-12T16:18:15.627Z,2.08
2022-08-12T16:20:33.427Z,1.70
2022-08-12T16:23:04.155Z,1.63
2022-08-12T16:26:00.060Z,1.95
2022-08-12T16:28:20.877Z,1.80
2022-08-12T16:30:54.936Z,1.90
2022-08-12T16:33:21.749Z,1.85
2022-08-12T16:35:50.220Z,1.50
2022-08-12T16:38:46.477Z,1.58
2022-08-12T16:41:44.254Z,1.80
2022-08-12T16:44:10.906Z,1.80
2022-08-12T16:46:38.013Z,1.83
2022-08-12T16:49:13.542Z,1.40
2022-08-12T16:51:46.089Z,1.90
2022-08-12T16:54:18.830Z,1.70
2022-08-12T16:56:54.669Z,1.90
2022-08-12T17:04:17.678Z,1.60
2022-08-12T17:06:48.841Z,1.90
2022-08-12T17:10:18.183Z,1.65
2022-08-12T17:12:44.147Z,1.40
2022-08-12T17:15:50.430Z,1.60
2022-08-12T17:18:39.256Z,1.70
2022-08-12T17:20:48.888Z,1.65
2022-08-12T17:23:19.178Z,1.60
2022-08-12T17:25:49.927Z,1.50
2022-08-12T17:28:18.638Z,1.45
2022-08-12T17:31:11.550Z,1.48
2022-08-12T17:33:43.538Z,1.38
2022-08-12T17:36:12.370Z,1.40
2022-08-12T17:38:40.493Z,1.50
2022-08-12T17:41:22.543Z,1.60
2022-08-12T17:43:58.264Z,1.40
2022-08-12T17:46:33.651Z,1.20
2022-08-12T17:49:18.853Z,1.90
2022-08-12T17:51:51.053Z,1.45
2022-08-12T17:54:31.406Z,1.30
2022-08-12T17:57:16.133Z,1.30
2022-08-12T17:59:48.524Z,1.40
2022-08-12T18:05:09.673Z,1.40
2022-08-12T18:07:37.003Z,1.42
2022-08-12T18:10:07.664Z,1.60
2022-08-12T18:12:43.301Z,1.40
2022-08-12T18:16:03.259Z,1.63
2022-08-12T18:18:16.855Z,1.50
2022-08-12T18:20:45.017Z,1.25
2022-08-12T18:23:12.245Z,1.70
2022-08-12T18:26:16.413Z,1.45
2022-08-12T18:28:45.146Z,1.58
2022-08-12T18:31:19.556Z,1.50
2022-08-12T18:33:49.704Z,1.55
2022-08-12T18:36:22.611Z,1.60
2022-08-12T18:38:59.277Z,1.58
2022-08-12T18:41:30.506Z,1.60
2022-08-12T18:44:09.452Z,1.42
2022-08-12T18:46:55.342Z,1.67
2022-08-12T18:49:33.347Z,1.60
2022-08-12T18:52:05.478Z,1.80
2022-08-12T18:54:49.180Z,1.50
2022-08-12T18:58:07.310Z,1.67
2022-08-12T19:00:22.240Z,1.70
2022-08-12T19:02:52.507Z,1.60
2022-08-12T19:05:20.450Z,1.55
2022-08-12T19:08:01.304Z,1.70
2022-08-12T19:10:32.715Z,1.95
2022-08-12T19:13:23.048Z,1.70
2022-08-12T19:15:58.118Z,1.88
2022-08-12T19:18:31.068Z,1.80
2022-08-12T19:21:11.833Z,1.83
2022-08-12T19:28:36.243Z,1.73
2022-08-12T19:31:57.153Z,2.00
2022-08-12T19:37:38.721Z,1.80
2022-08-12T19:44:51.772Z,1.63
2022-08-12T19:47:22.467Z,1.90
2022-08-12T19:49:55.877Z,1.80
2022-08-12T19:52:28.526Z,1.75
2022-08-12T19:54:56.407Z,1.80
2022-08-12T19:57:25.872Z,2.08
2022-08-12T20:00:03.981Z,2.10
2022-08-12T20:02:34.499Z,1.88
2022-08-12T20:06:07.747Z,2.13
2022-08-12T20:07:59.196Z,2.00
2022-08-12T20:10:35.346Z,1.70
2022-08-12T20:13:18.556Z,2.05
2022-08-12T20:15:59.540Z,1.88
2022-08-12T20:18:44.291Z,2.22
2022-08-12T20:21:16.984Z,2.45
2022-08-12T20:24:00.522Z,1.90
2022-08-12T20:26:28.018Z,2.25
2022-08-12T20:28:55.370Z,2.13
2022-08-12T20:31:22.014Z,2.15
2022-08-12T20:33:56.480Z,2.30
2022-08-12T20:36:40.807Z,2.00
2022-08-12T20:39:23.811Z,2.00
2022-08-12T20:41:59.870Z,2.28
2022-08-12T20:44:27.344Z,2.47
2022-08-12T20:46:59.058Z,2.03
2022-08-12T20:49:26.431Z,2.00
2022-08-12T20:51:59.246Z,2.00
2022-08-12T20:54:33.844Z,2.20
2022-08-12T20:57:01.925Z,2.17
2022-08-12T20:59:48.249Z,2.25
2022-08-12T21:02:24.463Z,2.15
2022-08-12T21:05:19.926Z,1.80
2022-08-12T21:07:51.968Z,2.35
2022-08-12T21:10:20.842Z,2.00
2022-08-12T21:12:48.666Z,2.10
2022-08-12T21:15:24.453Z,2.38
2022-08-12T21:18:11.342Z,2.35
2022-08-12T21:20:55.322Z,2.10
2022-08-12T21:23:22.821Z,2.10
2022-08-12T21:25:52.448Z,2.50
2022-08-12T21:28:20.446Z,2.20
2022-08-12T21:31:11.721Z,2.35
2022-08-12T21:34:07.886Z,2.40
2022-08-12T21:36:34.585Z,2.25
2022-08-12T21:39:20.760Z,2.13
2022-08-12T21:41:53.246Z,2.50
2022-08-12T21:44:24.024Z,2.35
2022-08-12T21:47:20.423Z,2.20
2022-08-12T21:50:02.327Z,2.05
2022-08-12T21:52:34.543Z,2.10
2022-08-12T21:55:08.452Z,2.22
2022-08-12T21:57:51.067Z,2.17
2022-08-12T22:00:32.514Z,2.40
2022-08-12T22:04:02.204Z,1.98
2022-08-12T22:06:26.220Z,2.30
2022-08-12T22:09:03.499Z,2.17
2022-08-12T22:11:42.407Z,2.35
2022-08-12T22:14:17.915Z,2.20
2022-08-12T22:16:49.321Z,1.90
2022-08-12T22:19:19.168Z,2.38
2022-08-12T22:21:48.249Z,2.40
2022-08-12T22:24:26.401Z,2.30
2022-08-12T22:27:22.834Z,2.00
2022-08-12T22:30:16.369Z,2.22
2022-08-12T22:32:49.682Z,2.20
2022-08-12T22:35:47.222Z,2.80
2022-08-12T22:38:26.417Z,2.47
2022-08-12T22:40:58.334Z,2.17
2022-08-12T22:44:00.982Z,2.40
2022-08-12T22:46:34.518Z,2.40
2022-08-12T22:49:01.423Z,2.53
2022-08-12T22:51:30.460Z,2.35
2022-08-12T22:54:35.564Z,2.20
2022-08-12T22:57:05.513Z,2.20
2022-08-12T22:59:55.159Z,2.25
2022-08-12T23:02:39.211Z,2.10
2022-08-12T23:07:52.911Z,2.30
2022-08-12T23:10:26.834Z,2.33
2022-08-12T23:13:12.202Z,2.03
2022-08-12T23:15:41.117Z,2.38
2022-08-12T23:18:16.699Z,2.05
2022-08-12T23:20:43.635Z,2.10
2022-08-12T23:23:13.419Z,2.15
2022-08-12T23:25:55.020Z,2.05
2022-08-12T23:28:42.272Z,2.38
2022-08-12T23:31:09.418Z,2.50
2022-08-12T23:33:59.884Z,1.98
2022-08-12T23:36:39.058Z,1.90
2022-08-12T23:40:13.829Z,1.83
2022-08-12T23:42:17.611Z,2.35
2022-08-12T23:44:42.637Z,2.28
2022-08-12T23:47:11.186Z,2.20
2022-08-12T23:49:58.411Z,1.98
2022-08-12T23:52:34.642Z,2.00
2022-08-12T23:55:25.195Z,2.33
2022-08-12T23:58:20.938Z,2.38
